sensor_id;sensor_type;location;lat;lon;timestamp;pressure;altitude;pressure_sealevel;temperature;humidity
3260;BME280;68938;48.150;14.004;2023-04-06T00:02:18;98413.97;;;4.16;55.96
3260;BME280;68938;48.150;14.004;2023-04-06T00:04:45;98404.66;;;4.17;55.73
3260;BME280;68938;48.150;14.004;2023-04-06T00:07:12;98408.88;;;4.16;55.80
3260;BME280;68938;48.150;14.004;2023-04-06T00:09:39;98408.03;;;4.13;56.15
3260;BME280;68938;48.150;14.004;2023-04-06T00:12:06;98402.97;;;4.08;56.70
3260;BME280;68938;48.150;14.004;2023-04-06T00:14:33;98404.69;;;4.11;56.20
3260;BME280;68938;48.150;14.004;2023-04-06T00:17:00;98401.28;;;4.06;56.36
3260;BME280;68938;48.150;14.004;2023-04-06T00:19:27;98401.28;;;4.04;55.98
3260;BME280;68938;48.150;14.004;2023-04-06T00:21:54;98409.72;;;4.00;56.51
3260;BME280;68938;48.150;14.004;2023-04-06T00:24:21;98407.19;;;4.00;56.19
3260;BME280;68938;48.150;14.004;2023-04-06T00:26:48;98397.91;;;3.97;56.51
3260;BME280;68938;48.150;14.004;2023-04-06T00:29:14;98399.59;;;3.97;56.33
3260;BME280;68938;48.150;14.004;2023-04-06T00:31:41;98404.66;;;3.94;56.39
3260;BME280;68938;48.150;14.004;2023-04-06T00:34:09;98393.66;;;3.87;57.46
3260;BME280;68938;48.150;14.004;2023-04-06T00:36:36;98392.78;;;3.79;58.01
3260;BME280;68938;48.150;14.004;2023-04-06T00:39:03;98392.78;;;3.76;58.23
3260;BME280;68938;48.150;14.004;2023-04-06T00:41:30;98395.31;;;3.71;57.99
3260;BME280;68938;48.150;14.004;2023-04-06T00:43:57;98388.53;;;3.69;57.78
3260;BME280;68938;48.150;14.004;2023-04-06T00:46:24;98397.84;;;3.62;58.47
3260;BME280;68938;48.150;14.004;2023-04-06T00:48:51;98390.22;;;3.58;58.21
3260;BME280;68938;48.150;14.004;2023-04-06T00:51:18;98390.22;;;3.54;58.26
3260;BME280;68938;48.150;14.004;2023-04-06T00:53:45;98390.19;;;3.48;58.58
3260;BME280;68938;48.150;14.004;2023-04-06T00:56:11;98384.28;;;3.48;58.63
3260;BME280;68938;48.150;14.004;2023-04-06T00:58:38;98387.69;;;3.50;58.75
3260;BME280;68938;48.150;14.004;2023-04-06T01:01:05;98388.53;;;3.49;58.90
3260;BME280;68938;48.150;14.004;2023-04-06T01:03:32;98381.78;;;3.49;58.90
3260;BME280;68938;48.150;14.004;2023-04-06T01:05:59;98386.00;;;3.50;58.80
3260;BME280;68938;48.150;14.004;2023-04-06T01:08:27;98382.59;;;3.51;58.69
3260;BME280;68938;48.150;14.004;2023-04-06T01:10:54;98383.47;;;3.49;58.57
3260;BME280;68938;48.150;14.004;2023-04-06T01:13:21;98381.75;;;3.48;59.31
3260;BME280;68938;48.150;14.004;2023-04-06T01:15:48;98380.94;;;3.49;58.67
3260;BME280;68938;48.150;14.004;2023-04-06T01:18:15;98383.44;;;3.52;58.83
3260;BME280;68938;48.150;14.004;2023-04-06T01:20:42;98383.47;;;3.53;58.48
3260;BME280;68938;48.150;14.004;2023-04-06T01:23:09;98383.47;;;3.53;58.32
3260;BME280;68938;48.150;14.004;2023-04-06T01:25:35;98378.38;;;3.52;57.99
3260;BME280;68938;48.150;14.004;2023-04-06T01:28:02;98382.59;;;3.50;58.12
3260;BME280;68938;48.150;14.004;2023-04-06T01:30:29;98377.53;;;3.42;58.66
3260;BME280;68938;48.150;14.004;2023-04-06T01:32:56;98380.06;;;3.47;58.13
3260;BME280;68938;48.150;14.004;2023-04-06T01:35:23;98374.13;;;3.48;57.92
3260;BME280;68938;48.150;14.004;2023-04-06T01:37:52;98374.97;;;3.48;57.93
3260;BME280;68938;48.150;14.004;2023-04-06T01:40:19;98375.84;;;3.43;57.96
3260;BME280;68938;48.150;14.004;2023-04-06T01:42:46;98379.22;;;3.46;57.95
3260;BME280;68938;48.150;14.004;2023-04-06T01:45:13;98370.78;;;3.46;57.72
3260;BME280;68938;48.150;14.004;2023-04-06T01:47:40;98376.69;;;3.46;57.66
3260;BME280;68938;48.150;14.004;2023-04-06T01:50:07;98378.38;;;3.46;57.94
3260;BME280;68938;48.150;14.004;2023-04-06T01:52:34;98375.00;;;3.47;58.07
3260;BME280;68938;48.150;14.004;2023-04-06T01:55:01;98373.28;;;3.47;57.76
3260;BME280;68938;48.150;14.004;2023-04-06T01:57:28;98369.94;;;3.45;57.93
3260;BME280;68938;48.150;14.004;2023-04-06T01:59:55;98374.13;;;3.45;57.96
3260;BME280;68938;48.150;14.004;2023-04-06T02:02:22;98380.91;;;3.43;57.97
3260;BME280;68938;48.150;14.004;2023-04-06T02:04:49;98379.19;;;3.40;57.74
3260;BME280;68938;48.150;14.004;2023-04-06T02:07:16;98369.91;;;3.39;58.01
3260;BME280;68938;48.150;14.004;2023-04-06T02:09:43;98376.66;;;3.40;57.92
3260;BME280;68938;48.150;14.004;2023-04-06T02:12:10;98374.94;;;3.35;58.21
3260;BME280;68938;48.150;14.004;2023-04-06T02:14:37;98363.13;;;3.33;58.59
3260;BME280;68938;48.150;14.004;2023-04-06T02:17:04;98360.59;;;3.32;58.56
3260;BME280;68938;48.150;14.004;2023-04-06T02:19:30;98379.16;;;3.28;58.94
3260;BME280;68938;48.150;14.004;2023-04-06T02:21:57;98369.88;;;3.27;58.77
3260;BME280;68938;48.150;14.004;2023-04-06T02:24:24;98370.72;;;3.26;58.56
3260;BME280;68938;48.150;14.004;2023-04-06T02:26:51;98373.22;;;3.24;58.32
3260;BME280;68938;48.150;14.004;2023-04-06T02:29:18;98373.22;;;3.21;58.38
3260;BME280;68938;48.150;14.004;2023-04-06T02:31:45;98368.97;;;3.17;58.60
3260;BME280;68938;48.150;14.004;2023-04-06T02:34:12;98370.69;;;3.17;59.06
3260;BME280;68938;48.150;14.004;2023-04-06T02:36:39;98368.16;;;3.17;58.49
3260;BME280;68938;48.150;14.004;2023-04-06T02:39:05;98375.78;;;3.18;58.38
3260;BME280;68938;48.150;14.004;2023-04-06T02:41:33;98372.38;;;3.12;58.87
3260;BME280;68938;48.150;14.004;2023-04-06T02:44:00;98374.88;;;3.07;58.80
3260;BME280;68938;48.150;14.004;2023-04-06T02:46:26;98376.56;;;3.06;58.63
3260;BME280;68938;48.150;14.004;2023-04-06T02:48:53;98368.09;;;3.07;58.60
3260;BME280;68938;48.150;14.004;2023-04-06T02:51:20;98373.19;;;3.09;58.44
3260;BME280;68938;48.150;14.004;2023-04-06T02:53:47;98371.50;;;3.09;57.99
3260;BME280;68938;48.150;14.004;2023-04-06T02:56:14;98370.66;;;3.09;58.26
3260;BME280;68938;48.150;14.004;2023-04-06T02:58:41;98370.63;;;3.07;58.73
3260;BME280;68938;48.150;14.004;2023-04-06T03:01:08;98368.09;;;3.01;58.95
3260;BME280;68938;48.150;14.004;2023-04-06T03:03:35;98373.13;;;2.97;59.17
3260;BME280;68938;48.150;14.004;2023-04-06T03:06:02;98373.13;;;2.97;59.16
3260;BME280;68938;48.150;14.004;2023-04-06T03:08:29;98369.75;;;2.95;58.72
3260;BME280;68938;48.150;14.004;2023-04-06T03:10:56;98379.91;;;2.95;58.88
3260;BME280;68938;48.150;14.004;2023-04-06T03:13:23;98376.50;;;2.97;58.57
3260;BME280;68938;48.150;14.004;2023-04-06T03:15:50;98372.28;;;2.96;58.50
3260;BME280;68938;48.150;14.004;2023-04-06T03:18:21;98366.38;;;2.94;58.22
3260;BME280;68938;48.150;14.004;2023-04-06T03:20:49;98363.81;;;2.90;58.38
3260;BME280;68938;48.150;14.004;2023-04-06T03:23:16;98364.66;;;2.89;58.82
3260;BME280;68938;48.150;14.004;2023-04-06T03:25:42;98368.88;;;2.87;59.05
3260;BME280;68938;48.150;14.004;2023-04-06T03:28:09;98372.22;;;2.78;59.29
3260;BME280;68938;48.150;14.004;2023-04-06T03:30:36;98371.34;;;2.74;59.53
3260;BME280;68938;48.150;14.004;2023-04-06T03:33:03;98370.50;;;2.72;59.78
3260;BME280;68938;48.150;14.004;2023-04-06T03:35:30;98370.50;;;2.71;59.66
3260;BME280;68938;48.150;14.004;2023-04-06T03:37:57;98376.34;;;2.67;59.94
3260;BME280;68938;48.150;14.004;2023-04-06T03:40:24;98381.41;;;2.62;60.11
3260;BME280;68938;48.150;14.004;2023-04-06T03:42:51;98378.03;;;2.57;60.06
3260;BME280;68938;48.150;14.004;2023-04-06T03:45:18;98388.09;;;2.51;60.29
3260;BME280;68938;48.150;14.004;2023-04-06T03:47:45;98393.13;;;2.49;60.32
3260;BME280;68938;48.150;14.004;2023-04-06T03:50:12;98394.00;;;2.53;60.16
3260;BME280;68938;48.150;14.004;2023-04-06T03:52:39;98390.66;;;2.55;59.86
3260;BME280;68938;48.150;14.004;2023-04-06T03:55:07;98393.22;;;2.57;59.81
3260;BME280;68938;48.150;14.004;2023-04-06T03:57:34;98401.66;;;2.59;59.62
3260;BME280;68938;48.150;14.004;2023-04-06T04:00:01;98398.28;;;2.57;59.51
3260;BME280;68938;48.150;14.004;2023-04-06T04:02:28;98406.72;;;2.57;59.49
3260;BME280;68938;48.150;14.004;2023-04-06T04:04:55;98400.78;;;2.54;59.85
3260;BME280;68938;48.150;14.004;2023-04-06T04:07:23;98408.38;;;2.55;59.74
3260;BME280;68938;48.150;14.004;2023-04-06T04:09:49;98411.75;;;2.54;59.95
3260;BME280;68938;48.150;14.004;2023-04-06T04:12:16;98415.97;;;2.55;59.91
3260;BME280;68938;48.150;14.004;2023-04-06T04:14:43;98411.75;;;2.54;59.98
3260;BME280;68938;48.150;14.004;2023-04-06T04:17:10;98409.22;;;2.54;60.24
3260;BME280;68938;48.150;14.004;2023-04-06T04:19:37;98405.81;;;2.52;61.13
3260;BME280;68938;48.150;14.004;2023-04-06T04:22:04;98411.72;;;2.50;61.21
3260;BME280;68938;48.150;14.004;2023-04-06T04:24:31;98409.19;;;2.48;61.14
3260;BME280;68938;48.150;14.004;2023-04-06T04:26:58;98413.41;;;2.46;61.53
3260;BME280;68938;48.150;14.004;2023-04-06T04:29:25;98411.69;;;2.45;61.79
3260;BME280;68938;48.150;14.004;2023-04-06T04:31:52;98418.44;;;2.45;61.74
3260;BME280;68938;48.150;14.004;2023-04-06T04:34:19;98412.50;;;2.43;61.66
3260;BME280;68938;48.150;14.004;2023-04-06T04:36:46;98416.72;;;2.42;61.47
3260;BME280;68938;48.150;14.004;2023-04-06T04:39:13;98416.75;;;2.44;61.65
3260;BME280;68938;48.150;14.004;2023-04-06T04:41:40;98427.72;;;2.46;62.34
3260;BME280;68938;48.150;14.004;2023-04-06T04:44:07;98427.72;;;2.44;62.44
3260;BME280;68938;48.150;14.004;2023-04-06T04:46:34;98427.69;;;2.41;62.35
3260;BME280;68938;48.150;14.004;2023-04-06T04:49:01;98428.53;;;2.40;62.28
3260;BME280;68938;48.150;14.004;2023-04-06T04:51:28;98425.16;;;2.40;62.86
3260;BME280;68938;48.150;14.004;2023-04-06T04:53:55;98426.84;;;2.41;62.60
3260;BME280;68938;48.150;14.004;2023-04-06T04:56:22;98429.41;;;2.44;62.32
3260;BME280;68938;48.150;14.004;2023-04-06T04:58:49;98431.97;;;2.47;62.07
3260;BME280;68938;48.150;14.004;2023-04-06T05:01:15;98431.09;;;2.49;61.88
3260;BME280;68938;48.150;14.004;2023-04-06T05:03:42;98431.97;;;2.53;61.81
3260;BME280;68938;48.150;14.004;2023-04-06T05:06:10;98429.50;;;2.57;61.86
3260;BME280;68938;48.150;14.004;2023-04-06T05:08:38;98430.38;;;2.61;61.76
3260;BME280;68938;48.150;14.004;2023-04-06T05:11:07;98436.25;;;2.63;62.02
3260;BME280;68938;48.150;14.004;2023-04-06T05:13:34;98431.22;;;2.65;61.63
3260;BME280;68938;48.150;14.004;2023-04-06T05:16:01;98440.50;;;2.66;62.25
3260;BME280;68938;48.150;14.004;2023-04-06T05:18:28;98442.25;;;2.71;nan
3260;BME280;68938;48.150;14.004;2023-04-06T05:20:55;98445.63;;;2.72;61.88
3260;BME280;68938;48.150;14.004;2023-04-06T05:23:22;98450.72;;;2.75;61.95
3260;BME280;68938;48.150;14.004;2023-04-06T05:25:49;98444.81;;;2.77;61.85
3260;BME280;68938;48.150;14.004;2023-04-06T05:28:16;98443.97;;;2.80;61.84
3260;BME280;68938;48.150;14.004;2023-04-06T05:30:44;98446.53;;;2.83;62.27
3260;BME280;68938;48.150;14.004;2023-04-06T05:33:11;98449.09;;;2.88;62.28
3260;BME280;68938;48.150;14.004;2023-04-06T05:35:38;98449.13;;;2.91;62.06
3260;BME280;68938;48.150;14.004;2023-04-06T05:38:08;98449.97;;;2.97;62.13
3260;BME280;68938;48.150;14.004;2023-04-06T05:40:36;98457.63;;;3.03;62.05
3260;BME280;68938;48.150;14.004;2023-04-06T05:43:03;98456.00;;;3.15;61.87
3260;BME280;68938;48.150;14.004;2023-04-06T05:45:30;98449.28;;;3.27;61.62
3260;BME280;68938;48.150;14.004;2023-04-06T05:47:57;98462.03;;;3.44;61.63
3260;BME280;68938;48.150;14.004;2023-04-06T05:50:24;98469.69;;;3.61;61.50
3260;BME280;68938;48.150;14.004;2023-04-06T05:52:51;98461.28;;;3.76;61.03
3260;BME280;68938;48.150;14.004;2023-04-06T05:55:18;98452.88;;;3.91;60.36
3260;BME280;68938;48.150;14.004;2023-04-06T05:57:45;98459.66;;;4.07;59.68
3260;BME280;68938;48.150;14.004;2023-04-06T06:00:12;98457.97;;;4.15;59.59
3260;BME280;68938;48.150;14.004;2023-04-06T06:02:40;98468.16;;;4.35;60.11
3260;BME280;68938;48.150;14.004;2023-04-06T06:05:08;98459.69;;;4.51;58.79
3260;BME280;68938;48.150;14.004;2023-04-06T06:07:36;98461.34;;;4.60;58.19
3260;BME280;68938;48.150;14.004;2023-04-06T06:10:03;98468.13;;;4.63;57.14
3260;BME280;68938;48.150;14.004;2023-04-06T06:12:30;98461.34;;;4.74;56.93
3260;BME280;68938;48.150;14.004;2023-04-06T06:14:57;98466.41;;;4.86;56.98
3260;BME280;68938;48.150;14.004;2023-04-06T06:17:24;98459.59;;;4.94;56.54
3260;BME280;68938;48.150;14.004;2023-04-06T06:19:51;98459.63;;;4.93;56.41
3260;BME280;68938;48.150;14.004;2023-04-06T06:22:18;98459.59;;;5.02;56.66
3260;BME280;68938;48.150;14.004;2023-04-06T06:24:45;98452.75;;;5.22;56.88
3260;BME280;68938;48.150;14.004;2023-04-06T06:27:12;98462.88;;;5.38;55.84
3260;BME280;68938;48.150;14.004;2023-04-06T06:29:38;98461.97;;;5.46;55.38
3260;BME280;68938;48.150;14.004;2023-04-06T06:32:05;98458.53;;;5.60;55.25
3260;BME280;68938;48.150;14.004;2023-04-06T06:34:32;98456.81;;;5.71;54.72
3260;BME280;68938;48.150;14.004;2023-04-06T06:36:59;98466.91;;;5.80;54.51
3260;BME280;68938;48.150;14.004;2023-04-06T06:39:26;98464.28;;;5.91;54.50
3260;BME280;68938;48.150;14.004;2023-04-06T06:41:53;98462.59;;;6.02;54.45
3260;BME280;68938;48.150;14.004;2023-04-06T06:44:20;98461.59;;;6.18;53.22
3260;BME280;68938;48.150;14.004;2023-04-06T06:46:47;98463.25;;;6.27;53.37
3260;BME280;68938;48.150;14.004;2023-04-06T06:49:14;98458.94;;;6.35;52.96
3260;BME280;68938;48.150;14.004;2023-04-06T06:51:42;98456.31;;;6.45;52.80
3260;BME280;68938;48.150;14.004;2023-04-06T06:54:09;98460.59;;;6.41;52.15
3260;BME280;68938;48.150;14.004;2023-04-06T06:56:37;98463.13;;;6.44;52.48
3260;BME280;68938;48.150;14.004;2023-04-06T06:59:04;98463.94;;;6.48;52.29
3260;BME280;68938;48.150;14.004;2023-04-06T07:01:32;98469.91;;;6.47;51.65
3260;BME280;68938;48.150;14.004;2023-04-06T07:04:00;98473.34;;;6.41;52.10
3260;BME280;68938;48.150;14.004;2023-04-06T07:06:27;98466.41;;;6.57;51.82
3260;BME280;68938;48.150;14.004;2023-04-06T07:08:54;98463.78;;;6.63;51.65
3260;BME280;68938;48.150;14.004;2023-04-06T07:11:21;98474.75;;;6.73;51.85
3260;BME280;68938;48.150;14.004;2023-04-06T07:13:48;98464.47;;;6.82;51.52
3260;BME280;68938;48.150;14.004;2023-04-06T07:16:15;98471.94;;;7.00;52.53
3260;BME280;68938;48.150;14.004;2023-04-06T07:18:42;98468.63;;;6.92;51.72
3260;BME280;68938;48.150;14.004;2023-04-06T07:21:09;98469.38;;;7.03;50.89
3260;BME280;68938;48.150;14.004;2023-04-06T07:23:36;98465.88;;;7.10;50.54
3260;BME280;68938;48.150;14.004;2023-04-06T07:26:03;98466.59;;;7.25;50.90
3260;BME280;68938;48.150;14.004;2023-04-06T07:28:31;98458.00;;;7.32;50.04
3260;BME280;68938;48.150;14.004;2023-04-06T07:30:57;98465.47;;;7.49;49.87
3260;BME280;68938;48.150;14.004;2023-04-06T07:33:24;98465.34;;;7.59;49.66
3260;BME280;68938;48.150;14.004;2023-04-06T07:35:51;98472.03;;;7.67;49.23
3260;BME280;68938;48.150;14.004;2023-04-06T07:38:18;98471.22;;;7.66;48.85
3260;BME280;68938;48.150;14.004;2023-04-06T07:40:45;98464.16;;;7.83;48.31
3260;BME280;68938;48.150;14.004;2023-04-06T07:43:12;98472.13;;;7.60;47.46
3260;BME280;68938;48.150;14.004;2023-04-06T07:45:39;98473.78;;;7.62;47.93
3260;BME280;68938;48.150;14.004;2023-04-06T07:48:06;98469.16;;;7.91;47.84
3260;BME280;68938;48.150;14.004;2023-04-06T07:50:33;98466.91;;;7.68;46.98
3260;BME280;68938;48.150;14.004;2023-04-06T07:53:00;98462.50;;;7.81;48.07
3260;BME280;68938;48.150;14.004;2023-04-06T07:55:27;98461.47;;;7.94;46.75
3260;BME280;68938;48.150;14.004;2023-04-06T07:57:54;98468.84;;;8.14;46.40
3260;BME280;68938;48.150;14.004;2023-04-06T08:00:21;98461.88;;;8.24;46.22
3260;BME280;68938;48.150;14.004;2023-04-06T08:02:48;98460.03;;;8.30;47.11
3260;BME280;68938;48.150;14.004;2023-04-06T08:05:15;98460.59;;;8.51;48.09
3260;BME280;68938;48.150;14.004;2023-04-06T08:07:43;98460.00;;;8.35;47.17
3260;BME280;68938;48.150;14.004;2023-04-06T08:10:10;98458.06;;;8.51;47.49
3260;BME280;68938;48.150;14.004;2023-04-06T08:12:37;98465.41;;;8.71;46.90
3260;BME280;68938;48.150;14.004;2023-04-06T08:15:04;98464.06;;;8.98;46.77
3260;BME280;68938;48.150;14.004;2023-04-06T08:17:32;98453.50;;;9.16;45.65
3260;BME280;68938;48.150;14.004;2023-04-06T08:19:59;98452.31;;;9.34;45.07
3260;BME280;68938;48.150;14.004;2023-04-06T08:22:27;98456.53;;;9.35;45.09
3260;BME280;68938;48.150;14.004;2023-04-06T08:24:54;98456.59;;;9.34;44.19
3260;BME280;68938;48.150;14.004;2023-04-06T08:27:21;98458.88;;;9.46;44.47
3260;BME280;68938;48.150;14.004;2023-04-06T08:29:49;98459.66;;;9.49;45.09
3260;BME280;68938;48.150;14.004;2023-04-06T08:32:16;98460.03;;;9.73;44.05
3260;BME280;68938;48.150;14.004;2023-04-06T08:34:43;98457.00;;;9.94;43.65
3260;BME280;68938;48.150;14.004;2023-04-06T08:37:10;98450.56;;;10.15;43.22
3260;BME280;68938;48.150;14.004;2023-04-06T08:39:37;98453.75;;;10.27;42.17
3260;BME280;68938;48.150;14.004;2023-04-06T08:42:04;98447.59;;;10.34;42.65
3260;BME280;68938;48.150;14.004;2023-04-06T08:44:31;98450.78;;;10.42;42.92
3260;BME280;68938;48.150;14.004;2023-04-06T08:46:59;98436.78;;;10.55;41.04
3260;BME280;68938;48.150;14.004;2023-04-06T08:49:27;98435.72;;;10.64;41.61
3260;BME280;68938;48.150;14.004;2023-04-06T08:51:55;98436.78;;;10.57;40.71
3260;BME280;68938;48.150;14.004;2023-04-06T08:54:22;98434.63;;;10.38;41.19
3260;BME280;68938;48.150;14.004;2023-04-06T08:56:49;98431.75;;;10.52;41.24
3260;BME280;68938;48.150;14.004;2023-04-06T08:59:17;98424.53;;;10.66;40.28
3260;BME280;68938;48.150;14.004;2023-04-06T09:01:45;98431.94;;;10.79;39.35
3260;BME280;68938;48.150;14.004;2023-04-06T09:04:13;98432.69;;;10.50;40.54
3260;BME280;68938;48.150;14.004;2023-04-06T09:06:41;98425.41;;;10.67;39.56
3260;BME280;68938;48.150;14.004;2023-04-06T09:09:08;98420.59;;;10.87;39.55
3260;BME280;68938;48.150;14.004;2023-04-06T09:11:45;98423.31;;;11.12;38.61
3260;BME280;68938;48.150;14.004;2023-04-06T09:14:14;98416.00;;;11.30;39.07
3260;BME280;68938;48.150;14.004;2023-04-06T09:16:45;98419.53;;;11.55;37.30
3260;BME280;68938;48.150;14.004;2023-04-06T09:19:12;98416.38;;;11.75;38.95
3260;BME280;68938;48.150;14.004;2023-04-06T09:21:39;98415.34;;;11.81;35.72
3260;BME280;68938;48.150;14.004;2023-04-06T09:24:07;98423.41;;;11.69;34.67
3260;BME280;68938;48.150;14.004;2023-04-06T09:26:47;98421.59;;;11.72;34.11
3260;BME280;68938;48.150;14.004;2023-04-06T09:29:24;98411.47;;;11.97;35.28
3260;BME280;68938;48.150;14.004;2023-04-06T09:32:05;98416.72;;;11.04;34.73
3260;BME280;68938;48.150;14.004;2023-04-06T09:34:42;98410.16;;;11.25;34.84
3260;BME280;68938;48.150;14.004;2023-04-06T09:37:16;98410.38;;;11.76;35.81
3260;BME280;68938;48.150;14.004;2023-04-06T09:39:45;98403.22;;;11.86;33.44
3260;BME280;68938;48.150;14.004;2023-04-06T09:42:26;98398.09;;;12.14;32.92
3260;BME280;68938;48.150;14.004;2023-04-06T09:44:54;98405.56;;;12.47;34.03
3260;BME280;68938;48.150;14.004;2023-04-06T09:47:22;98395.53;;;12.64;32.09
3260;BME280;68938;48.150;14.004;2023-04-06T09:49:56;98390.56;;;12.85;31.82
3260;BME280;68938;48.150;14.004;2023-04-06T09:52:33;98397.38;;;13.11;30.37
3260;BME280;68938;48.150;14.004;2023-04-06T09:55:05;98387.34;;;12.78;29.58
3260;BME280;68938;48.150;14.004;2023-04-06T10:00:14;98397.72;;;12.51;31.92
3260;BME280;68938;48.150;14.004;2023-04-06T10:08:12;98380.34;;;12.81;32.26
3260;BME280;68938;48.150;14.004;2023-04-06T10:10:41;98376.97;;;13.04;31.07
3260;BME280;68938;48.150;14.004;2023-04-06T10:13:11;98372.50;;;13.10;30.77
3260;BME280;68938;48.150;14.004;2023-04-06T10:15:38;98373.00;;;12.96;30.80
3260;BME280;68938;48.150;14.004;2023-04-06T10:18:05;98370.56;;;13.16;30.30
3260;BME280;68938;48.150;14.004;2023-04-06T10:20:43;98363.47;;;13.21;30.81
3260;BME280;68938;48.150;14.004;2023-04-06T10:23:24;98367.09;;;13.41;30.86
3260;BME280;68938;48.150;14.004;2023-04-06T10:26:00;98369.09;;;13.33;30.46
3260;BME280;68938;48.150;14.004;2023-04-06T10:28:35;98360.75;;;13.49;30.29
3260;BME280;68938;48.150;14.004;2023-04-06T10:31:06;98362.78;;;13.63;29.74
3260;BME280;68938;48.150;14.004;2023-04-06T10:33:33;98362.25;;;13.77;29.75
3260;BME280;68938;48.150;14.004;2023-04-06T10:36:15;98352.25;;;13.91;28.61
3260;BME280;68938;48.150;14.004;2023-04-06T10:38:58;98344.47;;;13.71;28.80
3260;BME280;68938;48.150;14.004;2023-04-06T10:41:44;98355.38;;;13.09;28.45
3260;BME280;68938;48.150;14.004;2023-04-06T10:44:21;98345.91;;;13.09;28.00
3260;BME280;68938;48.150;14.004;2023-04-06T10:46:54;98351.41;;;13.47;28.39
3260;BME280;68938;48.150;14.004;2023-04-06T10:49:25;98338.25;;;13.31;28.63
3260;BME280;68938;48.150;14.004;2023-04-06T10:51:56;98334.28;;;13.68;28.55
3260;BME280;68938;48.150;14.004;2023-04-06T10:54:24;98340.06;;;13.73;27.95
3260;BME280;68938;48.150;14.004;2023-04-06T10:56:53;98333.00;;;13.78;27.98
3260;BME280;68938;48.150;14.004;2023-04-06T10:59:20;98331.63;;;13.69;27.78
3260;BME280;68938;48.150;14.004;2023-04-06T11:01:47;98334.66;;;13.35;28.31
3260;BME280;68938;48.150;14.004;2023-04-06T11:04:19;98332.84;;;13.61;29.43
3260;BME280;68938;48.150;14.004;2023-04-06T11:06:47;98329.13;;;13.68;29.27
3260;BME280;68938;48.150;14.004;2023-04-06T11:11:52;98310.59;;;14.01;29.63
3260;BME280;68938;48.150;14.004;2023-04-06T11:14:20;98309.06;;;14.17;28.20
3260;BME280;68938;48.150;14.004;2023-04-06T11:16:48;98315.56;;;13.41;28.32
3260;BME280;68938;48.150;14.004;2023-04-06T11:19:15;98308.19;;;13.54;28.86
3260;BME280;68938;48.150;14.004;2023-04-06T11:21:45;98298.09;;;13.91;27.66
3260;BME280;68938;48.150;14.004;2023-04-06T11:24:21;98297.69;;;13.80;28.16
3260;BME280;68938;48.150;14.004;2023-04-06T11:26:52;98283.34;;;14.15;28.73
3260;BME280;68938;48.150;14.004;2023-04-06T11:29:26;98297.59;;;14.24;28.20
3260;BME280;68938;48.150;14.004;2023-04-06T11:31:59;98289.34;;;14.16;28.40
3260;BME280;68938;48.150;14.004;2023-04-06T11:34:29;98284.56;;;14.07;28.13
3260;BME280;68938;48.150;14.004;2023-04-06T11:36:59;98284.81;;;14.01;27.45
3260;BME280;68938;48.150;14.004;2023-04-06T11:39:28;98291.06;;;13.95;27.04
3260;BME280;68938;48.150;14.004;2023-04-06T11:42:02;98286.09;;;14.11;26.86
3260;BME280;68938;48.150;14.004;2023-04-06T11:44:42;98281.06;;;14.08;27.59
3260;BME280;68938;48.150;14.004;2023-04-06T11:47:11;98283.78;;;14.05;27.54
3260;BME280;68938;48.150;14.004;2023-04-06T11:49:41;98271.78;;;14.24;28.27
3260;BME280;68938;48.150;14.004;2023-04-06T11:52:23;98269.16;;;14.26;27.61
3260;BME280;68938;48.150;14.004;2023-04-06T11:54:52;98261.69;;;14.19;27.38
3260;BME280;68938;48.150;14.004;2023-04-06T11:57:21;98263.66;;;14.33;27.90
3260;BME280;68938;48.150;14.004;2023-04-06T11:59:49;98266.81;;;13.79;29.07
3260;BME280;68938;48.150;14.004;2023-04-06T12:02:16;98258.63;;;13.25;28.79
3260;BME280;68938;48.150;14.004;2023-04-06T12:04:43;98274.47;;;13.80;29.14
3260;BME280;68938;48.150;14.004;2023-04-06T12:07:10;98259.84;;;14.01;28.05
3260;BME280;68938;48.150;14.004;2023-04-06T12:09:37;98256.66;;;13.96;28.67
3260;BME280;68938;48.150;14.004;2023-04-06T12:12:04;98257.72;;;13.90;27.84
3260;BME280;68938;48.150;14.004;2023-04-06T12:14:31;98251.00;;;13.66;27.56
3260;BME280;68938;48.150;14.004;2023-04-06T12:16:58;98248.19;;;14.13;28.09
3260;BME280;68938;48.150;14.004;2023-04-06T12:19:25;98247.50;;;14.49;28.66
3260;BME280;68938;48.150;14.004;2023-04-06T12:21:53;98238.59;;;14.56;27.99
3260;BME280;68938;48.150;14.004;2023-04-06T12:24:21;98235.97;;;14.76;28.21
3260;BME280;68938;48.150;14.004;2023-04-06T12:26:48;98242.69;;;14.80;27.56
3260;BME280;68938;48.150;14.004;2023-04-06T12:29:25;98233.38;;;14.76;26.92
3260;BME280;68938;48.150;14.004;2023-04-06T12:31:52;98236.47;;;14.65;27.23
3260;BME280;68938;48.150;14.004;2023-04-06T12:34:19;98231.56;;;14.39;27.70
3260;BME280;68938;48.150;14.004;2023-04-06T12:36:46;98230.25;;;14.30;27.57
3260;BME280;68938;48.150;14.004;2023-04-06T12:39:13;98226.53;;;14.56;27.60
3260;BME280;68938;48.150;14.004;2023-04-06T12:41:40;98225.44;;;14.41;27.61
3260;BME280;68938;48.150;14.004;2023-04-06T12:44:07;98221.03;;;14.25;27.70
3260;BME280;68938;48.150;14.004;2023-04-06T12:46:33;98217.69;;;14.22;27.70
3260;BME280;68938;48.150;14.004;2023-04-06T12:49:00;98213.00;;;14.51;27.21
3260;BME280;68938;48.150;14.004;2023-04-06T12:51:28;98212.53;;;14.41;28.12
3260;BME280;68938;48.150;14.004;2023-04-06T12:53:54;98219.56;;;14.58;27.17
3260;BME280;68938;48.150;14.004;2023-04-06T12:56:21;98216.31;;;14.74;26.30
3260;BME280;68938;48.150;14.004;2023-04-06T12:58:51;98211.16;;;14.74;26.37
3260;BME280;68938;48.150;14.004;2023-04-06T13:01:18;98216.53;;;14.49;27.17
3260;BME280;68938;48.150;14.004;2023-04-06T13:03:45;98218.03;;;14.54;26.93
3260;BME280;68938;48.150;14.004;2023-04-06T13:06:12;98215.75;;;14.67;25.95
3260;BME280;68938;48.150;14.004;2023-04-06T13:08:40;98194.09;;;14.88;26.16
3260;BME280;68938;48.150;14.004;2023-04-06T13:11:08;98201.50;;;14.96;25.81
3260;BME280;68938;48.150;14.004;2023-04-06T13:13:36;98205.50;;;14.84;26.32
3260;BME280;68938;48.150;14.004;2023-04-06T13:16:08;98210.53;;;14.87;26.26
3260;BME280;68938;48.150;14.004;2023-04-06T13:18:36;98201.28;;;14.82;25.79
3260;BME280;68938;48.150;14.004;2023-04-06T13:21:04;98199.31;;;14.87;25.87
3260;BME280;68938;48.150;14.004;2023-04-06T13:23:32;98196.31;;;14.96;26.14